Time;durP1;ratioP1;P1;durP2;ratioP2;P2;SDS_P1;SDS_P2;PMS_P1;PMS_P2;Temp;Humidity;BMP_temperature;BMP_pressure;BME280_temperature;BME280_humidity;BME280_pressure;Samples;Min_cycle;Max_cycle;Signal;HPM_P1;HPM_P2
2022/02/04 00:23:33;;;;;;;0.00;0.00;;;;;;;;;;5019279;28;20135;-87
2022/02/04 00:25:47;;;;;;;0.00;0.00;;;;;;;;;;5026718;28;20164;-87
2022/02/04 00:28:22;;;;;;;0.10;0.10;;;;;;;;;;5019626;28;20112;-87
2022/02/04 00:31:01;;;;;;;0.10;0.10;;;;;;;;;;5002229;28;20047;-87
2022/02/04 00:33:28;;;;;;;0.10;0.10;;;;;;;;;;5002572;28;20071;-88
2022/02/04 00:36:01;;;;;;;0.40;0.40;;;;;;;;;;5001436;28;20358;-88
2022/02/04 00:38:32;;;;;;;0.00;0.00;;;;;;;;;;5018276;28;20073;-87
2022/02/04 00:41:04;;;;;;;0.00;0.00;;;;;;;;;;5001572;28;20060;-88
2022/02/04 00:43:31;;;;;;;0.03;0.03;;;;;;;;;;5018263;28;20546;-87
2022/02/04 00:46:08;;;;;;;0.10;0.10;;;;;;;;;;5017011;28;20069;-86
2022/02/04 00:48:46;;;;;;;0.00;0.00;;;;;;;;;;5002034;28;20093;-87
2022/02/04 01:26:01;;;;;;;0.10;0.10;;;;;;;;;;5017869;28;20049;-88
2022/02/04 01:28:27;;;;;;;0.10;0.10;;;;;;;;;;5031764;28;20053;-88
2022/02/04 01:30:55;;;;;;;0.08;0.08;;;;;;;;;;5015412;28;20056;-88
2022/02/04 01:33:20;;;;;;;0.30;0.20;;;;;;;;;;5015308;28;20054;-88
2022/02/04 01:35:47;;;;;;;0.10;0.10;;;;;;;;;;5031716;28;20098;-87
2022/02/04 01:38:13;;;;;;;0.00;0.00;;;;;;;;;;5015243;28;20511;-88
2022/02/04 01:40:39;;;;;;;0.05;0.05;;;;;;;;;;4999019;28;20041;-88
2022/02/04 01:43:05;;;;;;;0.10;0.10;;;;;;;;;;5015205;28;20091;-87
2022/02/04 01:45:31;;;;;;;0.20;0.17;;;;;;;;;;5031485;28;20365;-87
2022/02/04 01:47:57;;;;;;;0.10;0.10;;;;;;;;;;5015060;28;20120;-87
2022/02/04 01:50:23;;;;;;;0.28;0.28;;;;;;;;;;4992826;28;1129706;-87
2022/02/04 01:52:49;;;;;;;0.10;0.10;;;;;;;;;;5015783;28;20104;-87
2022/02/04 01:55:15;;;;;;;0.10;0.10;;;;;;;;;;5015824;28;20045;-87
2022/02/04 01:57:41;;;;;;;0.00;0.00;;;;;;;;;;5015922;28;20125;-86
2022/02/04 02:00:07;;;;;;;0.10;0.10;;;;;;;;;;5032097;28;20503;-86
2022/02/04 02:02:33;;;;;;;0.00;0.00;;;;;;;;;;5015901;28;20152;-87
2022/02/04 02:04:59;;;;;;;0.10;0.10;;;;;;;;;;4999082;28;20505;-87
2022/02/04 02:07:27;;;;;;;0.10;0.10;;;;;;;;;;5015770;28;20392;-87
2022/02/04 02:12:20;;;;;;;0.03;0.03;;;;;;;;;;5015535;28;20084;-87
2022/02/04 02:14:55;;;;;;;0.10;0.10;;;;;;;;;;4998403;28;20049;-88
2022/02/04 02:34:59;;;;;;;0.20;0.10;;;;;;;;;;5017480;28;20402;-88
2022/02/04 02:40:21;;;;;;;0.10;0.10;;;;;;;;;;5031252;28;20073;-88
2022/02/04 02:42:35;;;;;;;0.00;0.00;;;;;;;;;;5031231;28;20046;-88
2022/02/04 02:48:03;;;;;;;0.10;0.10;;;;;;;;;;5015997;28;20045;-88
2022/02/04 02:51:02;;;;;;;0.17;0.17;;;;;;;;;;5017907;28;20057;-87
2022/02/04 02:59:03;;;;;;;0.13;0.13;;;;;;;;;;5017288;28;20128;-88
2022/02/04 03:01:29;;;;;;;0.10;0.10;;;;;;;;;;5014467;28;20045;-87
2022/02/04 03:03:58;;;;;;;0.00;0.00;;;;;;;;;;5014342;28;20041;-88
2022/02/04 03:06:24;;;;;;;0.08;0.08;;;;;;;;;;4998362;28;20064;-88
2022/02/04 03:08:50;;;;;;;0.22;0.22;;;;;;;;;;5014566;28;20037;-87
2022/02/04 03:11:16;;;;;;;0.00;0.00;;;;;;;;;;5014300;28;20095;-88
2022/02/04 03:13:42;;;;;;;0.00;0.00;;;;;;;;;;5030681;28;20132;-87
2022/02/04 03:16:11;;;;;;;0.10;0.10;;;;;;;;;;5031046;28;20068;-87
2022/02/04 03:18:40;;;;;;;0.10;0.10;;;;;;;;;;4998166;28;20042;-87
2022/02/04 03:21:12;;;;;;;0.10;0.10;;;;;;;;;;5030740;28;20037;-88
2022/02/04 03:23:41;;;;;;;0.00;0.00;;;;;;;;;;5030664;28;20041;-87
2022/02/04 03:26:29;;;;;;;0.10;0.10;;;;;;;;;;5014143;28;20045;-87
2022/02/04 03:28:55;;;;;;;0.10;0.10;;;;;;;;;;5000759;28;20045;-87
2022/02/04 03:31:21;;;;;;;0.10;0.10;;;;;;;;;;5014000;28;20077;-87
2022/02/04 03:33:48;;;;;;;0.10;0.10;;;;;;;;;;5030697;28;20056;-89
2022/02/04 03:36:14;;;;;;;0.10;0.10;;;;;;;;;;5030926;28;20397;-87
2022/02/04 03:38:40;;;;;;;0.10;0.10;;;;;;;;;;5014347;28;20033;-88
2022/02/04 03:41:07;;;;;;;0.17;0.17;;;;;;;;;;5014503;28;20037;-88
2022/02/04 03:43:33;;;;;;;0.00;0.00;;;;;;;;;;5030443;28;20448;-87
2022/02/04 03:45:59;;;;;;;0.00;0.00;;;;;;;;;;5030467;28;20132;-87
2022/02/04 03:48:25;;;;;;;0.43;0.43;;;;;;;;;;5013934;28;20453;-88
2022/02/04 03:50:51;;;;;;;0.10;0.10;;;;;;;;;;5014025;28;20116;-87
2022/02/04 03:53:17;;;;;;;0.00;0.00;;;;;;;;;;4997471;28;20041;-88
2022/02/04 03:55:43;;;;;;;0.13;0.13;;;;;;;;;;4997767;28;20077;-88
2022/02/04 03:58:10;;;;;;;0.10;0.10;;;;;;;;;;5014281;28;20416;-87
2022/02/04 04:00:36;;;;;;;0.10;0.10;;;;;;;;;;5030570;28;20112;-87
2022/02/04 04:03:02;;;;;;;0.20;0.20;;;;;;;;;;5030202;28;20042;-87
2022/02/04 04:05:28;;;;;;;0.15;0.15;;;;;;;;;;5030331;28;20437;-87
2022/02/04 04:07:55;;;;;;;0.30;0.30;;;;;;;;;;5013895;28;20056;-87
2022/02/04 04:10:26;;;;;;;0.10;0.10;;;;;;;;;;5030195;28;20050;-88
2022/02/04 04:12:53;;;;;;;0.10;0.10;;;;;;;;;;5014575;28;20053;-87
2022/02/04 04:15:19;;;;;;;0.13;0.13;;;;;;;;;;5014344;28;20443;-87
2022/02/04 04:17:46;;;;;;;0.10;0.10;;;;;;;;;;5013907;28;20393;-88
2022/02/04 04:20:12;;;;;;;0.10;0.10;;;;;;;;;;5030349;28;20095;-88
2022/02/04 04:22:38;;;;;;;0.10;0.10;;;;;;;;;;5030031;28;20042;-88
2022/02/04 04:25:05;;;;;;;0.20;0.20;;;;;;;;;;5014120;28;20045;-88
2022/02/04 04:27:31;;;;;;;0.10;0.10;;;;;;;;;;5014057;28;20045;-87
2022/02/04 04:29:57;;;;;;;0.10;0.10;;;;;;;;;;5013585;28;20040;-87
2022/02/04 04:32:23;;;;;;;0.10;0.10;;;;;;;;;;5013582;28;20124;-87
2022/02/04 04:34:49;;;;;;;0.10;0.10;;;;;;;;;;5013697;28;20037;-87
2022/02/04 04:37:15;;;;;;;0.10;0.10;;;;;;;;;;5031285;28;20641;-87
2022/02/04 04:39:55;;;;;;;0.08;0.08;;;;;;;;;;5001020;28;20038;-87
2022/02/04 04:42:34;;;;;;;0.60;0.22;;;;;;;;;;5017209;28;20064;-87
2022/02/04 05:28:43;;;;;;;0.10;0.10;;;;;;;;;;5033333;28;20116;-87
2022/02/04 05:31:09;;;;;;;0.10;0.10;;;;;;;;;;5032788;28;20037;-87
2022/02/04 05:33:35;;;;;;;0.10;0.10;;;;;;;;;;5032543;28;20048;-87
2022/02/04 05:36:04;;;;;;;0.17;0.17;;;;;;;;;;5016126;28;20346;-87
2022/02/04 05:38:32;;;;;;;0.10;0.10;;;;;;;;;;5016050;28;20037;-88
2022/02/04 05:40:59;;;;;;;0.00;0.00;;;;;;;;;;5016193;28;20077;-87
2022/02/04 05:43:29;;;;;;;0.10;0.10;;;;;;;;;;5032673;28;20045;-88
2022/02/04 05:46:01;;;;;;;0.10;0.10;;;;;;;;;;5000256;28;20107;-88
2022/02/04 05:48:29;;;;;;;0.10;0.10;;;;;;;;;;4999154;28;20103;-88
2022/02/04 05:51:37;;;;;;;0.10;0.10;;;;;;;;;;5016401;28;20501;-87
2022/02/04 06:01:39;;;;;;;0.10;0.10;;;;;;;;;;5016114;28;20080;-88
2022/02/04 06:04:29;;;;;;;0.40;0.22;;;;;;;;;;5015507;28;20145;-87
2022/02/04 06:22:59;;;;;;;0.20;0.20;;;;;;;;;;5017816;28;20501;-89
2022/02/04 06:25:25;;;;;;;0.10;0.10;;;;;;;;;;4998845;28;20147;-89
2022/02/04 06:27:50;;;;;;;0.10;0.10;;;;;;;;;;5015369;28;20231;-89
2022/02/04 06:30:16;;;;;;;0.10;0.10;;;;;;;;;;5015106;28;20041;-89
2022/02/04 06:32:42;;;;;;;0.10;0.10;;;;;;;;;;5015068;28;20052;-89
2022/02/04 06:35:09;;;;;;;0.10;0.10;;;;;;;;;;5015035;28;20503;-88
2022/02/04 06:37:35;;;;;;;0.10;0.10;;;;;;;;;;5015282;28;20459;-87
2022/02/04 06:40:01;;;;;;;0.10;0.10;;;;;;;;;;4998614;28;20121;-88
2022/02/04 06:42:28;;;;;;;0.10;0.10;;;;;;;;;;4998909;28;20488;-88
2022/02/04 06:44:54;;;;;;;0.10;0.10;;;;;;;;;;5015426;28;20515;-87
2022/02/04 06:47:20;;;;;;;0.10;0.10;;;;;;;;;;4998726;28;20041;-87
2022/02/04 06:49:46;;;;;;;0.10;0.10;;;;;;;;;;5014606;28;20107;-87
2022/02/04 06:52:13;;;;;;;0.10;0.10;;;;;;;;;;4998609;28;20084;-88
2022/02/04 06:54:38;;;;;;;0.20;0.20;;;;;;;;;;4998279;28;20511;-87
2022/02/04 06:57:05;;;;;;;0.10;0.10;;;;;;;;;;5014866;28;20037;-87
2022/02/04 06:59:31;;;;;;;0.10;0.10;;;;;;;;;;5014300;28;20040;-88
2022/02/04 07:01:57;;;;;;;0.13;0.13;;;;;;;;;;5014738;28;20504;-88
2022/02/04 07:04:25;;;;;;;0.10;0.10;;;;;;;;;;5014598;28;20045;-88
2022/02/04 07:06:57;;;;;;;0.10;0.10;;;;;;;;;;4999097;28;20413;-86
2022/02/04 07:09:38;;;;;;;0.10;0.10;;;;;;;;;;5015560;28;20084;-87
2022/02/04 07:15:46;;;;;;;0.00;0.00;;;;;;;;;;4963505;28;20046;-88
2022/02/04 07:19:45;;;;;;;0.00;0.00;;;;;;;;;;4963297;28;20053;-86
2022/02/04 07:21:13;;;;;;;0.00;0.00;;;;;;;;;;5017072;28;20085;-85
2022/02/04 07:23:39;;;;;;;0.00;0.00;;;;;;;;;;4997691;28;20079;-86
2022/02/04 07:26:05;;;;;;;0.13;0.13;;;;;;;;;;5014039;28;20052;-86
2022/02/04 07:28:31;;;;;;;0.15;0.13;;;;;;;;;;5014254;28;20033;-87
2022/02/04 07:30:59;;;;;;;0.55;0.55;;;;;;;;;;5030804;28;20440;-86
2022/02/04 07:33:38;;;;;;;0.00;0.00;;;;;;;;;;4998137;28;20044;-87
2022/02/04 07:38:51;;;;;;;0.10;0.10;;;;;;;;;;5031954;28;20052;-86
2022/02/04 07:41:17;;;;;;;0.10;0.10;;;;;;;;;;5030803;28;20037;-87
2022/02/04 07:43:43;;;;;;;0.00;0.00;;;;;;;;;;5014337;28;20049;-86
2022/02/04 07:46:13;;;;;;;0.10;0.10;;;;;;;;;;5014714;28;20485;-87
2022/02/04 07:48:39;;;;;;;0.10;0.10;;;;;;;;;;5030249;28;20045;-87
2022/02/04 07:51:05;;;;;;;0.05;0.05;;;;;;;;;;5014237;28;20050;-86
2022/02/04 07:53:34;;;;;;;0.10;0.10;;;;;;;;;;5014081;28;20095;-88
2022/02/04 07:56:00;;;;;;;0.10;0.10;;;;;;;;;;5014458;28;20046;-88
2022/02/04 07:58:26;;;;;;;0.10;0.10;;;;;;;;;;5014683;28;20037;-90
2022/02/04 08:00:52;;;;;;;0.10;0.10;;;;;;;;;;5014190;28;20619;-90
2022/02/04 08:03:40;;;;;;;0.20;0.20;;;;;;;;;;4997938;28;20068;-89
2022/02/04 08:06:11;;;;;;;0.10;0.10;;;;;;;;;;5000657;28;20124;-89
2022/02/04 08:08:45;;;;;;;0.32;0.30;;;;;;;;;;5014904;28;20041;-91
2022/02/04 08:14:09;;;;;;;0.10;0.10;;;;;;;;;;5033905;28;20048;-87
2022/02/04 08:32:43;;;;;;;0.10;0.10;;;;;;;;;;5033974;28;20081;-90
2022/02/04 08:56:34;;;;;;;0.10;0.10;;;;;;;;;;5016932;28;20049;-86
2022/02/04 08:59:07;;;;;;;0.45;0.45;;;;;;;;;;5019239;28;20125;-88
2022/02/04 09:01:38;;;;;;;0.10;0.10;;;;;;;;;;5033329;28;20038;-85
2022/02/04 09:04:13;;;;;;;0.10;0.10;;;;;;;;;;5016618;28;20041;-86
2022/02/04 09:06:43;;;;;;;0.10;0.10;;;;;;;;;;5017818;28;20045;-88
2022/02/04 09:09:17;;;;;;;0.10;0.10;;;;;;;;;;5017137;28;20049;-89
2022/02/04 09:11:48;;;;;;;0.10;0.10;;;;;;;;;;5001008;28;20045;-87
2022/02/04 09:17:29;;;;;;;0.10;0.10;;;;;;;;;;5033031;28;20045;-88
2022/02/04 09:24:50;;;;;;;0.10;0.10;;;;;;;;;;5033840;28;20417;-88
2022/02/04 09:27:16;;;;;;;0.10;0.10;;;;;;;;;;5015926;28;20041;-87
2022/02/04 09:29:42;;;;;;;0.10;0.10;;;;;;;;;;5015809;28;20053;-88
2022/02/04 09:32:08;;;;;;;0.10;0.10;;;;;;;;;;5032400;28;20045;-87
2022/02/04 09:34:34;;;;;;;0.30;0.28;;;;;;;;;;5015868;28;20467;-87
2022/02/04 09:37:00;;;;;;;0.10;0.10;;;;;;;;;;5032350;28;20103;-87
2022/02/04 09:39:26;;;;;;;0.30;0.30;;;;;;;;;;5032303;28;20065;-88
2022/02/04 09:41:52;;;;;;;0.10;0.10;;;;;;;;;;5032155;28;20103;-87
2022/02/04 09:44:18;;;;;;;0.10;0.10;;;;;;;;;;4999344;28;20045;-87
2022/02/04 09:46:44;;;;;;;0.10;0.10;;;;;;;;;;5015718;28;20045;-88
2022/02/04 09:49:21;;;;;;;0.15;0.15;;;;;;;;;;5015382;28;20057;-87
2022/02/04 10:06:47;;;;;;;0.17;0.17;;;;;;;;;;5032450;28;20042;-85
2022/02/04 10:14:11;;;;;;;0.10;0.10;;;;;;;;;;5032918;28;20099;-86
2022/02/04 10:17:05;;;;;;;0.13;0.13;;;;;;;;;;5025411;28;20040;-86
2022/02/04 10:19:36;;;;;;;0.10;0.10;;;;;;;;;;5051745;28;20128;-85
2022/02/04 10:22:02;;;;;;;0.17;0.17;;;;;;;;;;5020033;28;20048;-85
2022/02/04 10:24:29;;;;;;;0.10;0.10;;;;;;;;;;5034764;28;20045;-85
2022/02/04 10:27:13;;;;;;;0.10;0.10;;;;;;;;;;5051443;28;20200;-85
2022/02/04 10:29:39;;;;;;;0.10;0.10;;;;;;;;;;5051309;28;20127;-87
2022/02/04 10:32:05;;;;;;;0.10;0.10;;;;;;;;;;5051450;28;20082;-86
2022/02/04 10:34:32;;;;;;;0.10;0.10;;;;;;;;;;5050900;28;20346;-86
2022/02/04 10:37:02;;;;;;;0.10;0.10;;;;;;;;;;5051792;28;20047;-85
2022/02/04 10:45:23;;;;;;;0.20;0.20;;;;;;;;;;5039669;28;20396;-85
2022/02/04 10:56:21;;;;;;;0.30;0.30;;;;;;;;;;5037040;28;20041;-86
2022/02/04 10:59:13;;;;;;;0.15;0.15;;;;;;;;;;5036189;28;20112;-85
2022/02/04 11:02:52;;;;;;;0.10;0.10;;;;;;;;;;5054439;28;20124;-85
2022/02/04 11:21:44;;;;;;;0.10;0.10;;;;;;;;;;5034539;28;20342;-85
2022/02/04 11:34:07;;;;;;;0.13;0.13;;;;;;;;;;5050078;28;20080;-85
2022/02/04 11:36:48;;;;;;;0.10;0.10;;;;;;;;;;5034740;28;20391;-85
2022/02/04 11:54:30;;;;;;;0.10;0.10;;;;;;;;;;5038336;28;20083;-85
2022/02/04 11:56:56;;;;;;;0.20;0.20;;;;;;;;;;5054608;28;20056;-86
2022/02/04 11:59:35;;;;;;;0.32;0.30;;;;;;;;;;5054196;28;20143;-86
2022/02/04 12:02:01;;;;;;;0.10;0.10;;;;;;;;;;5054352;28;20040;-86
2022/02/04 12:04:27;;;;;;;0.10;0.10;;;;;;;;;;5054395;28;20064;-86
2022/02/04 12:06:56;;;;;;;0.10;0.10;;;;;;;;;;5037632;28;20488;-86
2022/02/04 12:09:35;;;;;;;0.10;0.10;;;;;;;;;;5054024;28;20491;-86
2022/02/04 12:12:01;;;;;;;0.10;0.10;;;;;;;;;;5053989;28;20041;-86
2022/02/04 12:14:30;;;;;;;0.10;0.10;;;;;;;;;;5054303;28;20063;-86
2022/02/04 12:17:11;;;;;;;0.28;0.28;;;;;;;;;;5054165;28;20033;-86
2022/02/04 12:19:38;;;;;;;0.30;0.30;;;;;;;;;;5053934;28;20108;-85
2022/02/04 12:22:04;;;;;;;0.10;0.10;;;;;;;;;;5054039;28;20037;-86
2022/02/04 12:24:30;;;;;;;0.15;0.15;;;;;;;;;;5037283;28;20045;-86
2022/02/04 12:27:15;;;;;;;0.10;0.10;;;;;;;;;;5054087;28;20091;-86
2022/02/04 12:29:41;;;;;;;0.13;0.10;;;;;;;;;;5053892;28;20488;-88
2022/02/04 12:32:07;;;;;;;0.75;0.22;;;;;;;;;;5053865;28;20033;-86
2022/02/04 12:34:34;;;;;;;0.10;0.10;;;;;;;;;;5053722;28;20425;-85
2022/02/04 12:37:02;;;;;;;0.10;0.10;;;;;;;;;;5053876;28;20051;-85
2022/02/04 12:39:31;;;;;;;0.10;0.10;;;;;;;;;;5055087;28;20060;-84
2022/02/04 12:41:57;;;;;;;0.10;0.10;;;;;;;;;;5053315;28;20037;-84
2022/02/04 12:44:24;;;;;;;0.10;0.10;;;;;;;;;;5053821;28;20052;-85
2022/02/04 12:46:51;;;;;;;0.10;0.10;;;;;;;;;;5052916;28;20041;-85
2022/02/04 12:49:17;;;;;;;0.10;0.10;;;;;;;;;;5053241;28;20139;-85
2022/02/04 12:54:10;;;;;;;0.10;0.10;;;;;;;;;;5036875;28;20056;-85
2022/02/04 12:57:04;;;;;;;0.25;0.20;;;;;;;;;;5053539;28;20076;-85
2022/02/04 13:10:10;;;;;;;0.10;0.10;;;;;;;;;;5053097;28;20052;-85
2022/02/04 13:12:49;;;;;;;0.10;0.10;;;;;;;;;;5036370;28;20124;-84
2022/02/04 13:15:15;;;;;;;0.10;0.10;;;;;;;;;;5052995;28;20049;-84
2022/02/04 13:17:41;;;;;;;0.10;0.10;;;;;;;;;;5052891;28;20052;-84
2022/02/04 13:20:08;;;;;;;0.65;0.30;;;;;;;;;;5052734;28;20072;-84
2022/02/04 13:22:35;;;;;;;0.10;0.10;;;;;;;;;;5052694;28;20041;-84
2022/02/04 13:25:11;;;;;;;0.10;0.10;;;;;;;;;;5036119;28;20037;-84
2022/02/04 13:27:37;;;;;;;0.10;0.10;;;;;;;;;;5052694;28;20059;-84
2022/02/04 13:30:22;;;;;;;0.10;0.10;;;;;;;;;;5052660;28;20037;-84
2022/02/04 13:32:48;;;;;;;0.10;0.10;;;;;;;;;;5052451;28;20067;-84
2022/02/04 13:35:44;;;;;;;0.10;0.10;;;;;;;;;;5052801;28;20045;-84
2022/02/04 13:38:22;;;;;;;0.10;0.10;;;;;;;;;;5040194;28;20056;-84
2022/02/04 13:41:02;;;;;;;0.10;0.10;;;;;;;;;;5036788;28;20037;-84
2022/02/04 13:43:36;;;;;;;0.30;0.10;;;;;;;;;;5053719;28;20045;-84
2022/02/04 13:46:20;;;;;;;0.10;0.10;;;;;;;;;;5053536;28;20051;-85
2022/02/04 13:48:57;;;;;;;0.10;0.10;;;;;;;;;;5038311;28;20071;-85
2022/02/04 13:51:40;;;;;;;0.10;0.10;;;;;;;;;;5052436;28;20079;-85
2022/02/04 13:54:18;;;;;;;0.30;0.30;;;;;;;;;;5036787;28;20103;-85
2022/02/04 13:56:54;;;;;;;0.10;0.10;;;;;;;;;;5052263;28;20095;-86
2022/02/04 13:59:35;;;;;;;0.30;0.30;;;;;;;;;;5037093;28;20463;-85
2022/02/04 14:02:10;;;;;;;0.70;0.20;;;;;;;;;;5051985;28;20049;-85
2022/02/04 14:04:36;;;;;;;0.10;0.10;;;;;;;;;;5052190;28;20431;-85
2022/02/04 14:07:09;;;;;;;0.10;0.10;;;;;;;;;;5052362;28;20051;-85
2022/02/04 14:09:39;;;;;;;0.10;0.10;;;;;;;;;;5034471;28;20044;-85
2022/02/04 14:12:15;;;;;;;0.10;0.10;;;;;;;;;;5051795;28;20500;-85
2022/02/04 14:14:42;;;;;;;0.00;0.00;;;;;;;;;;5051807;28;20114;-85
2022/02/04 14:17:07;;;;;;;0.00;0.00;;;;;;;;;;5052192;28;20033;-86
2022/02/04 14:19:33;;;;;;;0.10;0.10;;;;;;;;;;5051966;28;20131;-86
2022/02/04 14:21:59;;;;;;;0.10;0.10;;;;;;;;;;5051583;28;20037;-85
2022/02/04 14:24:27;;;;;;;0.10;0.10;;;;;;;;;;5051715;28;20067;-85
2022/02/04 14:26:54;;;;;;;0.10;0.10;;;;;;;;;;5051262;28;20049;-85
2022/02/04 14:29:26;;;;;;;0.10;0.10;;;;;;;;;;5051770;28;20041;-85
2022/02/04 15:01:49;;;;;;;0.10;0.10;;;;;;;;;;5051130;28;20098;-85
2022/02/04 15:04:25;;;;;;;0.00;0.00;;;;;;;;;;5051000;28;20045;-85
2022/02/04 15:06:58;;;;;;;0.10;0.10;;;;;;;;;;5051186;28;20052;-85
2022/02/04 15:09:24;;;;;;;0.00;0.00;;;;;;;;;;5035597;28;20396;-85
2022/02/04 15:11:51;;;;;;;0.00;0.00;;;;;;;;;;5051111;28;20399;-85
2022/02/04 15:14:18;;;;;;;0.00;0.00;;;;;;;;;;5050858;28;20048;-85
2022/02/04 15:16:45;;;;;;;0.00;0.00;;;;;;;;;;5034337;28;20045;-85
2022/02/04 15:19:11;;;;;;;0.10;0.10;;;;;;;;;;5050902;28;20132;-85
2022/02/04 15:21:40;;;;;;;0.10;0.10;;;;;;;;;;5050583;28;20514;-85
2022/02/04 15:24:07;;;;;;;0.10;0.10;;;;;;;;;;5034482;28;20049;-85
2022/02/04 15:26:33;;;;;;;0.00;0.00;;;;;;;;;;5050842;28;20049;-85
2022/02/04 15:29:08;;;;;;;0.10;0.10;;;;;;;;;;5050942;28;20049;-85
2022/02/04 15:34:03;;;;;;;0.10;0.10;;;;;;;;;;5050224;28;20059;-85
2022/02/04 15:36:40;;;;;;;0.10;0.10;;;;;;;;;;5034016;28;20037;-86
2022/02/04 15:39:07;;;;;;;0.03;0.03;;;;;;;;;;5051839;28;20121;-85
2022/02/04 15:41:35;;;;;;;0.03;0.03;;;;;;;;;;5050656;28;20428;-86
2022/02/04 15:44:09;;;;;;;0.00;0.00;;;;;;;;;;5034230;28;20048;-85
2022/02/04 15:46:44;;;;;;;0.00;0.00;;;;;;;;;;5051882;28;20396;-85
2022/02/04 15:54:55;;;;;;;0.10;0.10;;;;;;;;;;5036210;28;20595;-85
2022/02/04 16:05:05;;;;;;;0.00;0.00;;;;;;;;;;5034217;28;20052;-85
2022/02/04 16:07:33;;;;;;;0.10;0.10;;;;;;;;;;5050340;28;20374;-85
2022/02/04 16:10:19;;;;;;;0.10;0.10;;;;;;;;;;5050351;28;20119;-85
2022/02/04 16:12:55;;;;;;;0.00;0.00;;;;;;;;;;5036527;28;20041;-85
2022/02/04 16:15:45;;;;;;;0.00;0.00;;;;;;;;;;5066981;28;20044;-85
2022/02/04 16:18:18;;;;;;;0.00;0.00;;;;;;;;;;5053424;28;20045;-85
2022/02/04 16:23:29;;;;;;;0.10;0.10;;;;;;;;;;5050052;28;19943;-85
2022/02/04 16:26:25;;;;;;;0.00;0.00;;;;;;;;;;5034217;28;20041;-85
2022/02/04 16:28:44;;;;;;;0.10;0.10;;;;;;;;;;5036690;28;20377;-85
2022/02/04 16:31:12;;;;;;;0.10;0.10;;;;;;;;;;5049870;28;20036;-85
2022/02/04 16:33:38;;;;;;;0.00;0.00;;;;;;;;;;5051606;28;20083;-86
2022/02/04 16:36:09;;;;;;;0.00;0.00;;;;;;;;;;5053651;28;20072;-86
2022/02/04 16:38:35;;;;;;;0.00;0.00;;;;;;;;;;5053598;28;20041;-85
2022/02/04 16:41:06;;;;;;;0.08;0.08;;;;;;;;;;5053217;28;20091;-85
2022/02/04 16:43:35;;;;;;;0.00;0.00;;;;;;;;;;5053518;28;20556;-86
2022/02/04 16:46:02;;;;;;;0.00;0.00;;;;;;;;;;5037272;28;20216;-87
2022/02/04 16:48:28;;;;;;;0.00;0.00;;;;;;;;;;5054324;28;20040;-86
2022/02/04 16:50:54;;;;;;;0.05;0.05;;;;;;;;;;5053016;28;20052;-86
2022/02/04 16:53:20;;;;;;;0.03;0.03;;;;;;;;;;5053004;28;20056;-87
2022/02/04 16:55:46;;;;;;;0.00;0.00;;;;;;;;;;5036501;28;20037;-88
2022/02/04 16:58:12;;;;;;;0.10;0.10;;;;;;;;;;5052971;28;20138;-89
2022/02/04 17:00:38;;;;;;;0.10;0.10;;;;;;;;;;5053180;28;20095;-88
2022/02/04 17:03:08;;;;;;;0.10;0.10;;;;;;;;;;5052599;28;20033;-88
2022/02/04 17:05:39;;;;;;;0.00;0.00;;;;;;;;;;5053001;28;20080;-89
2022/02/04 17:08:08;;;;;;;0.00;0.00;;;;;;;;;;5053826;28;20091;-88
2022/02/04 17:10:35;;;;;;;0.10;0.10;;;;;;;;;;5036622;28;20124;-89
2022/02/04 17:13:01;;;;;;;0.00;0.00;;;;;;;;;;5036523;28;20502;-88
2022/02/04 17:15:31;;;;;;;0.00;0.00;;;;;;;;;;5053075;28;20044;-89
2022/02/04 17:17:58;;;;;;;0.00;0.00;;;;;;;;;;5036911;28;20460;-89
2022/02/04 17:20:24;;;;;;;0.03;0.03;;;;;;;;;;5036362;28;20072;-90
2022/02/04 17:22:51;;;;;;;0.10;0.10;;;;;;;;;;5036409;28;20033;-91
2022/02/04 17:25:17;;;;;;;0.00;0.00;;;;;;;;;;5053459;28;20092;-91
2022/02/04 17:27:44;;;;;;;0.20;0.20;;;;;;;;;;5036074;28;20513;-92
2022/02/04 17:30:11;;;;;;;0.10;0.10;;;;;;;;;;5036152;28;20377;-89
2022/02/04 17:32:39;;;;;;;0.10;0.10;;;;;;;;;;5052665;28;20156;-89
2022/02/04 17:35:05;;;;;;;0.00;0.00;;;;;;;;;;5052746;28;20044;-89
2022/02/04 17:37:31;;;;;;;0.05;0.05;;;;;;;;;;5036065;28;20139;-90
2022/02/04 17:39:58;;;;;;;0.03;0.03;;;;;;;;;;5055262;28;20069;-89
2022/02/04 17:42:26;;;;;;;0.10;0.10;;;;;;;;;;5053827;28;20040;-89
2022/02/04 17:44:52;;;;;;;0.00;0.00;;;;;;;;;;5052328;28;20052;-88
2022/02/04 17:47:20;;;;;;;0.00;0.00;;;;;;;;;;5052266;28;20492;-89
2022/02/04 17:49:56;;;;;;;0.00;0.00;;;;;;;;;;5052414;28;20061;-88
2022/02/04 17:52:28;;;;;;;0.10;0.10;;;;;;;;;;5036894;28;20092;-91
2022/02/04 17:55:00;;;;;;;0.10;0.10;;;;;;;;;;5036623;28;20094;-90
2022/02/04 17:57:38;;;;;;;0.00;0.00;;;;;;;;;;5036534;28;20116;-89
2022/02/04 18:00:41;;;;;;;0.00;0.00;;;;;;;;;;5036610;28;20417;-89
2022/02/04 18:05:38;;;;;;;0.10;0.10;;;;;;;;;;5035566;28;20192;-89
2022/02/04 18:08:04;;;;;;;0.00;0.00;;;;;;;;;;5051726;28;20072;-89
2022/02/04 18:10:30;;;;;;;0.00;0.00;;;;;;;;;;5035331;28;20120;-88
2022/02/04 18:12:56;;;;;;;0.10;0.10;;;;;;;;;;5051894;28;20044;-88
2022/02/04 18:15:22;;;;;;;0.20;0.20;;;;;;;;;;5035408;28;20053;-88
2022/02/04 18:17:48;;;;;;;0.10;0.10;;;;;;;;;;5051932;28;20043;-89
2022/02/04 18:20:14;;;;;;;0.10;0.10;;;;;;;;;;5035069;28;20063;-89
2022/02/04 18:22:40;;;;;;;0.00;0.00;;;;;;;;;;5051770;28;20053;-90
2022/02/04 18:25:06;;;;;;;0.10;0.10;;;;;;;;;;5035136;28;20049;-90
2022/02/04 18:27:32;;;;;;;0.00;0.00;;;;;;;;;;5051959;28;20474;-90
2022/02/04 18:29:59;;;;;;;0.00;0.00;;;;;;;;;;5052377;28;20454;-91
2022/02/04 18:32:25;;;;;;;0.00;0.00;;;;;;;;;;5051754;28;20083;-90
2022/02/04 18:34:52;;;;;;;0.10;0.10;;;;;;;;;;5051419;28;20128;-89
2022/02/04 18:37:19;;;;;;;0.10;0.10;;;;;;;;;;5051377;28;20041;-88
2022/02/04 18:42:40;;;;;;;0.10;0.10;;;;;;;;;;5035445;28;20052;-91
2022/02/04 18:45:15;;;;;;;0.00;0.00;;;;;;;;;;5038125;28;20041;-89
2022/02/04 18:47:54;;;;;;;0.00;0.00;;;;;;;;;;5035883;28;20052;-88
2022/02/04 18:50:31;;;;;;;0.10;0.10;;;;;;;;;;5036566;28;20057;-93
2022/02/04 18:53:12;;;;;;;0.10;0.10;;;;;;;;;;5036116;28;20235;-92
2022/02/04 18:58:08;;;;;;;0.00;0.00;;;;;;;;;;5051455;28;20045;-92
2022/02/04 19:00:34;;;;;;;0.10;0.10;;;;;;;;;;5035097;28;20037;-92
2022/02/04 19:03:04;;;;;;;0.00;0.00;;;;;;;;;;5034921;28;20048;-91
2022/02/04 19:05:36;;;;;;;0.00;0.00;;;;;;;;;;5054194;28;20037;-91
2022/02/04 19:10:28;;;;;;;0.10;0.10;;;;;;;;;;5056755;28;20037;-93
2022/02/04 19:13:07;;;;;;;0.10;0.10;;;;;;;;;;5053924;28;20045;-91
2022/02/04 19:21:09;;;;;;;0.00;0.00;;;;;;;;;;5058532;28;20097;-92
2022/02/04 19:23:54;;;;;;;0.00;0.00;;;;;;;;;;5058840;28;20080;-92
2022/02/04 19:26:25;;;;;;;0.00;0.00;;;;;;;;;;5067755;28;20105;-92
2022/02/04 19:28:51;;;;;;;0.00;0.00;;;;;;;;;;5050445;28;20041;-92
2022/02/04 19:31:18;;;;;;;0.00;0.00;;;;;;;;;;5049022;28;20063;-94
2022/02/04 19:33:46;;;;;;;0.10;0.10;;;;;;;;;;5049991;28;20065;-92
2022/02/04 19:36:15;;;;;;;0.00;0.00;;;;;;;;;;5053452;28;20036;-88
2022/02/04 19:38:44;;;;;;;0.10;0.10;;;;;;;;;;5071768;28;20055;-93
2022/02/04 19:41:15;;;;;;;0.05;0.05;;;;;;;;;;5055158;28;20120;-91
2022/02/04 19:43:44;;;;;;;0.10;0.10;;;;;;;;;;5055947;28;20041;-92
2022/02/04 19:46:15;;;;;;;0.05;0.05;;;;;;;;;;5056709;28;20071;-91
2022/02/04 19:48:47;;;;;;;0.10;0.10;;;;;;;;;;5072874;28;20045;-91
2022/02/04 20:16:48;;;;;;;0.00;0.00;;;;;;;;;;5060828;28;20071;-90
2022/02/04 20:24:11;;;;;;;0.10;0.10;;;;;;;;;;5063803;28;20041;-91
2022/02/04 20:26:38;;;;;;;;;;;;;;;;;;5040858;28;20456;-90
2022/02/04 20:29:04;;;;;;;0.00;0.00;;;;;;;;;;5053755;28;19940;-90
2022/02/04 20:31:30;;;;;;;0.00;0.00;;;;;;;;;;5037667;28;20045;-92
2022/02/04 20:33:56;;;;;;;0.10;0.10;;;;;;;;;;5038288;28;20158;-94
2022/02/04 20:36:22;;;;;;;0.10;0.10;;;;;;;;;;5037990;28;20165;-96
2022/02/04 20:38:51;;;;;;;0.75;0.75;;;;;;;;;;5037847;28;20494;-93
2022/02/04 20:41:22;;;;;;;0.00;0.00;;;;;;;;;;5038132;28;20079;-94
2022/02/04 20:43:48;;;;;;;0.10;0.10;;;;;;;;;;5038559;28;20448;-93
2022/02/04 20:46:14;;;;;;;0.00;0.00;;;;;;;;;;5038649;28;20048;-94
2022/02/04 20:48:40;;;;;;;0.10;0.10;;;;;;;;;;5038221;28;20315;-95
2022/02/04 20:51:06;;;;;;;0.00;0.00;;;;;;;;;;5037735;28;20144;-93
2022/02/04 20:53:33;;;;;;;0.10;0.10;;;;;;;;;;5037448;28;20049;-93
2022/02/04 20:56:01;;;;;;;0.00;0.00;;;;;;;;;;5044084;28;20064;-94
2022/02/04 20:58:27;;;;;;;0.00;0.00;;;;;;;;;;5058331;28;20041;-94
2022/02/04 21:00:54;;;;;;;0.52;0.52;;;;;;;;;;5037965;28;20073;-94
2022/02/04 21:03:23;;;;;;;0.00;0.00;;;;;;;;;;5037780;28;20036;-93
2022/02/04 21:05:55;;;;;;;0.00;0.00;;;;;;;;;;5037183;28;20533;-94
2022/02/04 21:08:38;;;;;;;0.10;0.10;;;;;;;;;;5038053;28;20036;-93
2022/02/04 21:13:50;;;;;;;0.00;0.00;;;;;;;;;;5053205;28;20056;-92
2022/02/04 21:16:30;;;;;;;0.00;0.00;;;;;;;;;;5070725;28;20542;-93
2022/02/04 21:18:56;;;;;;;0.10;0.10;;;;;;;;;;5037531;28;20094;-94
2022/02/04 21:21:23;;;;;;;0.10;0.10;;;;;;;;;;5053958;28;20044;-94
2022/02/04 21:23:49;;;;;;;0.00;0.00;;;;;;;;;;5037462;28;20044;-93
2022/02/04 21:26:15;;;;;;;0.00;0.00;;;;;;;;;;5036734;28;20056;-93
2022/02/04 21:28:44;;;;;;;0.00;0.00;;;;;;;;;;5037218;28;20049;-93
2022/02/04 21:31:11;;;;;;;0.00;0.00;;;;;;;;;;5037223;28;20091;-93
2022/02/04 21:39:13;;;;;;;0.00;0.00;;;;;;;;;;5039415;28;20037;-92
2022/02/04 21:41:39;;;;;;;0.00;0.00;;;;;;;;;;5036540;28;20094;-92